Time;durP1;ratioP1;P1;durP2;ratioP2;P2;SDS_P1;SDS_P2;PMS_P1;PMS_P2;Temp;Humidity;BMP_temperature;BMP_pressure;BME280_temperature;BME280_humidity;BME280_pressure;Samples;Min_cycle;Max_cycle;Signal;HPM_P1;HPM_P2
2021/05/02 00:01:48;;;;;;;4.88;3.05;;;;;;;17.03;33.53;101589.34;4192220;28;20043;-47
2021/05/02 00:03:48;;;;;;;5.75;3.05;;;;;;;17.06;33.58;101592.47;4190698;28;20688;-48
2021/05/02 00:05:49;;;;;;;4.15;3.05;;;;;;;17.00;33.52;101585.16;4201058;28;20097;-47
2021/05/02 00:07:50;;;;;;;3.30;3.00;;;;;;;16.99;33.40;101580.72;4186587;28;20032;-47
2021/05/02 00:09:51;;;;;;;3.53;2.75;;;;;;;16.92;33.54;101585.56;4191928;28;20025;-45
2021/05/02 00:11:51;;;;;;;4.70;3.00;;;;;;;16.75;33.53;101558.69;4183231;28;20475;-49
2021/05/02 00:13:52;;;;;;;4.55;3.60;;;;;;;16.95;33.45;101585.06;4188076;28;20029;-45
2021/05/02 00:15:52;;;;;;;3.70;2.58;;;;;;;16.99;33.45;101580.72;4190932;28;20044;-52
2021/05/02 00:17:55;;;;;;;3.00;2.60;;;;;;;16.96;33.42;101584.00;4185891;28;20505;-49
2021/05/02 00:19:56;;;;;;;4.63;3.28;;;;;;;16.98;33.08;101581.81;4190130;28;20200;-47
2021/05/02 00:21:57;;;;;;;3.20;2.90;;;;;;;16.99;33.28;101579.88;4192440;28;20040;-46
2021/05/02 00:23:58;;;;;;;2.75;2.55;;;;;;;17.01;33.30;101586.84;4186602;28;20024;-47
2021/05/02 00:25:58;;;;;;;3.83;2.28;;;;;;;16.89;33.51;101575.84;4190862;28;20024;-51
2021/05/02 00:28:05;;;;;;;5.00;3.25;;;;;;;16.89;33.43;101584.13;4191451;28;20115;-46
2021/05/02 00:30:06;;;;;;;4.07;2.80;;;;;;;16.96;33.14;101581.22;4189715;28;20102;-48
2021/05/02 00:32:07;;;;;;;2.80;2.47;;;;;;;16.89;33.32;101580.53;4191630;28;20066;-45
2021/05/02 00:34:10;;;;;;;2.67;2.40;;;;;;;16.95;33.36;101578.72;4191832;28;20583;-48
2021/05/02 00:36:11;;;;;;;4.22;2.60;;;;;;;16.97;33.33;101582.06;4190555;28;20032;-46
2021/05/02 00:38:12;;;;;;;3.67;2.80;;;;;;;16.77;33.49;101591.63;4188095;28;20375;-46
2021/05/02 00:40:17;;;;;;;3.05;2.50;;;;;;;16.82;33.70;101591.75;4191032;28;20071;-50
2021/05/02 00:42:24;;;;;;;3.05;2.53;;;;;;;16.89;33.39;101591.59;4188307;28;20040;-46
2021/05/02 00:44:28;;;;;;;3.35;2.50;;;;;;;16.78;33.49;101584.19;4191820;28;20155;-48
2021/05/02 00:46:35;;;;;;;3.53;2.38;;;;;;;16.64;33.47;101587.22;4191330;28;20036;-46
2021/05/02 00:48:53;;;;;;;3.83;2.60;;;;;;;16.69;33.50;101587.34;4191652;28;20075;-47
2021/05/02 00:51:01;;;;;;;3.17;2.35;;;;;;;16.59;33.66;101581.59;4189824;28;21022;-50
2021/05/02 00:53:02;;;;;;;2.70;2.05;;;;;;;16.67;33.66;101583.16;4189212;28;20486;-49
2021/05/02 00:55:08;;;;;;;2.78;2.25;;;;;;;16.64;33.68;101587.22;4191887;28;20026;-48
2021/05/02 00:57:18;;;;;;;3.35;2.38;;;;;;;16.65;33.64;101585.31;4190723;28;20117;-46
2021/05/02 00:59:25;;;;;;;2.67;2.47;;;;;;;16.67;33.66;101581.22;4185487;28;20021;-48
2021/05/02 01:01:29;;;;;;;4.05;2.65;;;;;;;16.61;33.73;101582.16;4185599;28;20020;-46
2021/05/02 01:03:33;;;;;;;2.70;2.17;;;;;;;16.54;33.46;101573.19;4189151;28;20461;-50
2021/05/02 01:05:34;;;;;;;4.93;2.60;;;;;;;16.72;33.32;101580.47;4182105;28;20086;-49
2021/05/02 01:07:40;;;;;;;5.28;1.98;;;;;;;16.60;33.61;101582.41;4188888;28;20044;-46
2021/05/02 01:09:40;;;;;;;6.18;3.15;;;;;;;16.52;33.56;101567.06;4190698;28;20027;-47
2021/05/02 01:11:41;;;;;;;3.25;2.13;;;;;;;16.52;33.71;101589.16;4190744;28;20041;-48
2021/05/02 01:13:53;;;;;;;5.20;2.55;;;;;;;16.58;33.64;101585.44;4190482;28;20024;-49
2021/05/02 01:15:58;;;;;;;3.22;2.50;;;;;;;16.57;33.46;101572.69;4192036;28;20115;-47
2021/05/02 01:18:02;;;;;;;4.57;2.05;;;;;;;16.61;33.31;101582.16;4189857;28;20536;-47
2021/05/02 01:20:03;;;;;;;3.47;2.20;;;;;;;16.68;33.28;101590.34;4190183;28;20056;-47
2021/05/02 01:22:11;;;;;;;3.80;2.10;;;;;;;16.58;33.40;101585.44;4191176;28;20036;-47
2021/05/02 01:24:11;;;;;;;3.55;2.30;;;;;;;16.61;33.38;101589.63;4190307;28;20052;-48
2021/05/02 01:26:16;;;;;;;4.03;2.35;;;;;;;16.48;33.31;101580.53;4184793;28;20029;-49
2021/05/02 01:28:18;;;;;;;2.40;2.20;;;;;;;16.60;33.47;101582.41;4183715;28;20029;-45
2021/05/02 01:30:20;;;;;;;4.75;2.20;;;;;;;16.58;33.48;101588.19;4190485;28;20501;-46
2021/05/02 01:32:22;;;;;;;3.90;2.30;;;;;;;16.57;33.44;101594.78;4192231;28;20394;-47
2021/05/02 01:34:24;;;;;;;2.92;2.00;;;;;;;16.52;33.41;101586.41;4189861;28;20075;-51
2021/05/02 01:36:24;;;;;;;2.53;2.00;;;;;;;16.48;33.59;101582.44;4189332;28;20491;-49
2021/05/02 01:38:25;;;;;;;3.33;2.38;;;;;;;16.51;33.67;101591.09;4189716;28;20056;-48
2021/05/02 01:40:26;;;;;;;3.80;1.90;;;;;;;15.85;34.53;101598.75;4190439;28;20453;-47
2021/05/02 01:42:26;;;;;;;3.22;1.98;;;;;;;15.48;35.05;101588.72;4190870;28;20040;-47
2021/05/02 01:44:27;;;;;;;2.38;1.80;;;;;;;15.53;35.32;101604.56;4190645;28;20055;-49
2021/05/02 01:46:35;;;;;;;2.90;1.80;;;;;;;15.47;35.31;101595.31;4187430;28;20103;-46
2021/05/02 01:48:36;;;;;;;2.30;1.67;;;;;;;15.49;35.21;101601.47;4190706;28;20489;-47
2021/05/02 01:50:45;;;;;;;2.08;1.75;;;;;;;15.41;35.34;101595.44;4189756;28;20486;-47
2021/05/02 01:52:52;;;;;;;2.97;1.75;;;;;;;16.27;34.06;101595.84;4190709;28;20028;-48
2021/05/02 01:54:55;;;;;;;2.05;1.95;;;;;;;16.34;33.63;101595.69;4190165;28;20036;-48
2021/05/02 01:56:55;;;;;;;3.60;2.20;;;;;;;16.32;33.65;101586.81;4188610;28;20025;-50
2021/05/02 01:58:57;;;;;;;2.10;1.88;;;;;;;16.47;33.43;101595.44;4191903;28;20047;-48
2021/05/02 02:01:06;;;;;;;2.47;1.83;;;;;;;16.31;33.56;101586.00;4187394;28;20475;-49
2021/05/02 02:03:08;;;;;;;3.83;2.28;;;;;;;16.41;33.46;101593.66;4191639;28;20267;-44
2021/05/02 02:05:10;;;;;;;2.38;1.90;;;;;;;16.37;33.40;101601.59;4190647;28;20029;-46
2021/05/02 02:07:14;;;;;;;2.42;1.95;;;;;;;16.29;33.66;101596.41;4190006;28;20095;-46
2021/05/02 02:09:15;;;;;;;2.20;1.70;;;;;;;16.21;33.84;101591.28;4190774;28;20086;-48
2021/05/02 02:11:16;;;;;;;3.95;1.80;;;;;;;16.29;33.62;101607.47;4189242;28;20452;-46
2021/05/02 02:13:18;;;;;;;2.28;1.50;;;;;;;16.26;33.64;101605.19;4189632;28;20025;-49
2021/05/02 02:15:19;;;;;;;1.88;1.60;;;;;;;16.32;33.70;101608.91;4174908;28;20033;-50
2021/05/02 02:17:20;;;;;;;2.38;2.03;;;;;;;16.26;33.72;101605.19;4190713;28;20056;-47
2021/05/02 02:19:20;;;;;;;2.10;1.90;;;;;;;16.27;33.71;101611.59;4189598;28;20593;-47
2021/05/02 02:21:23;;;;;;;1.63;1.40;;;;;;;16.29;33.47;101601.94;4190735;28;20052;-47
2021/05/02 02:23:27;;;;;;;2.03;1.73;;;;;;;16.25;33.71;101606.28;4190945;28;20131;-50
2021/05/02 02:25:31;;;;;;;3.33;1.70;;;;;;;16.27;33.55;101611.59;4190742;28;20036;-46
2021/05/02 02:27:32;;;;;;;2.30;1.90;;;;;;;16.18;33.84;101608.34;4190281;28;20032;-49
2021/05/02 02:29:38;;;;;;;3.92;1.73;;;;;;;16.24;33.71;101612.91;4189281;28;20039;-48
2021/05/02 02:31:44;;;;;;;2.80;1.30;;;;;;;16.27;33.77;101615.16;4191100;28;20028;-50
2021/05/02 02:33:45;;;;;;;1.90;1.70;;;;;;;16.20;33.61;101598.75;4188218;28;20024;-51
2021/05/02 02:35:53;;;;;;;1.73;1.40;;;;;;;16.22;33.95;101623.34;4189297;28;20037;-49
2021/05/02 02:37:55;;;;;;;2.03;1.88;;;;;;;16.16;33.89;101621.56;4190039;28;20028;-47
2021/05/02 02:40:00;;;;;;;2.03;1.50;;;;;;;16.24;33.63;101620.34;4186862;28;20075;-52
2021/05/02 02:42:02;;;;;;;2.20;2.00;;;;;;;16.27;33.77;101623.47;4184639;28;20449;-45
2021/05/02 02:44:05;;;;;;;1.67;1.50;;;;;;;16.24;33.69;101623.13;4189269;28;20037;-49
2021/05/02 02:46:10;;;;;;;1.63;1.52;;;;;;;16.26;33.78;101623.69;4189160;28;20442;-46
2021/05/02 02:48:12;;;;;;;2.03;1.48;;;;;;;16.23;33.55;101613.13;4188402;28;20560;-50
2021/05/02 02:50:17;;;;;;;1.52;1.23;;;;;;;16.29;33.66;101617.69;4189268;28;20087;-48
2021/05/02 02:52:24;;;;;;;1.73;1.38;;;;;;;16.29;33.69;101615.75;4183566;28;20033;-48
2021/05/02 02:54:28;;;;;;;2.10;1.60;;;;;;;16.30;33.67;101619.38;4189405;28;20093;-45
2021/05/02 02:56:30;;;;;;;1.50;1.40;;;;;;;16.29;33.51;101615.75;4189113;28;20453;-45
2021/05/02 02:58:40;;;;;;;2.63;1.35;;;;;;;16.35;33.48;101625.84;4191203;28;20051;-48
2021/05/02 03:00:41;;;;;;;1.43;1.33;;;;;;;16.29;33.62;101629.56;4193112;28;20075;-46
2021/05/02 03:02:50;;;;;;;1.73;1.23;;;;;;;16.30;33.59;101624.91;4188236;28;20444;-46
2021/05/02 03:04:53;;;;;;;1.83;1.30;;;;;;;16.30;33.51;101624.91;4185888;28;20466;-44
2021/05/02 03:06:54;;;;;;;3.78;1.65;;;;;;;16.15;33.91;101630.91;4193728;28;20037;-46
2021/05/02 03:08:56;;;;;;;2.03;1.38;;;;;;;16.30;33.60;101622.97;4194143;28;20067;-47
2021/05/02 03:10:58;;;;;;;2.67;1.60;;;;;;;16.25;33.79;101620.09;4192307;28;20797;-45
2021/05/02 03:12:59;;;;;;;3.28;1.55;;;;;;;16.22;33.61;101626.13;4192286;28;20356;-45
2021/05/02 03:15:01;;;;;;;3.38;1.38;;;;;;;16.28;33.53;101627.91;4191814;28;20036;-49
2021/05/02 03:17:02;;;;;;;1.60;1.30;;;;;;;16.27;33.66;101628.97;4191804;28;20024;-46
2021/05/02 03:19:25;;;;;;;1.73;1.33;;;;;;;16.28;33.60;101633.44;4193237;28;20405;-47
2021/05/02 03:21:33;;;;;;;1.60;1.17;;;;;;;16.23;33.76;101632.47;4191025;28;20028;-46
2021/05/02 03:23:44;;;;;;;3.05;1.23;;;;;;;16.27;33.75;101628.97;4173952;28;20040;-46
2021/05/02 03:25:47;;;;;;;1.80;1.60;;;;;;;16.25;33.73;101633.06;4192725;28;20024;-45
2021/05/02 03:27:58;;;;;;;1.50;1.40;;;;;;;16.23;33.63;101636.06;4192680;28;20122;-48
2021/05/02 03:29:59;;;;;;;;;;;;;;;16.26;33.61;101635.59;4193600;28;20029;-44
2021/05/02 03:32:01;;;;;;;;;;;;;;;16.29;33.57;101632.34;4192853;28;19931;-44
2021/05/02 03:34:04;;;;;;;1.48;1.23;;;;;;;16.25;33.67;101630.28;4192236;28;19923;-44
2021/05/02 03:36:09;;;;;;;2.40;2.10;;;;;;;16.20;33.68;101634.66;4190711;28;20410;-46
2021/05/02 03:38:23;;;;;;;1.67;1.58;;;;;;;16.20;33.87;101636.56;4191743;28;20036;-46
2021/05/02 03:40:23;;;;;;;2.35;1.60;;;;;;;16.10;33.82;101626.13;4192460;28;20085;-48
2021/05/02 03:42:24;;;;;;;2.90;1.38;;;;;;;16.23;33.76;101632.47;4192291;28;20045;-45
2021/05/02 03:44:24;;;;;;;1.45;1.13;;;;;;;16.20;33.81;101642.94;4191053;28;20033;-49
2021/05/02 03:46:25;;;;;;;1.23;1.00;;;;;;;16.09;33.98;101638.22;4193466;28;20033;-49
2021/05/02 03:48:25;;;;;;;1.38;1.23;;;;;;;16.18;33.94;101647.00;4174769;28;20490;-50
2021/05/02 03:50:26;;;;;;;1.55;1.20;;;;;;;16.20;33.96;101644.84;4191217;28;20434;-49
2021/05/02 03:52:26;;;;;;;1.50;1.40;;;;;;;16.10;33.95;101634.41;4186749;28;20120;-47
2021/05/02 03:54:27;;;;;;;2.17;1.20;;;;;;;16.26;33.67;101649.41;4192080;28;20032;-45
2021/05/02 03:56:44;;;;;;;2.13;1.50;;;;;;;16.22;33.74;101653.75;4191730;28;20118;-45
2021/05/02 03:58:44;;;;;;;3.25;1.48;;;;;;;16.29;33.70;101650.84;4188071;28;20033;-51
2021/05/02 04:00:45;;;;;;;2.33;1.20;;;;;;;16.15;34.09;101647.50;4190259;28;20027;-46
2021/05/02 04:02:46;;;;;;;1.35;1.17;;;;;;;16.19;33.77;101665.28;4193117;28;20044;-47
2021/05/02 04:04:46;;;;;;;1.95;1.30;;;;;;;16.15;33.89;101662.13;4187888;28;20384;-44
2021/05/02 04:06:47;;;;;;;4.13;1.08;;;;;;;16.24;33.79;101667.31;4191700;28;20453;-44
2021/05/02 04:08:48;;;;;;;1.75;1.55;;;;;;;16.15;33.96;101659.38;4181403;28;20433;-48
2021/05/02 04:10:48;;;;;;;2.28;1.05;;;;;;;16.20;33.96;101665.03;4190508;28;20523;-50
2021/05/02 04:12:48;;;;;;;1.58;1.48;;;;;;;16.21;33.95;101666.69;4192821;28;20465;-47
2021/05/02 04:14:49;;;;;;;1.40;1.20;;;;;;;16.18;33.92;101672.69;4191565;28;20033;-46
2021/05/02 04:17:01;;;;;;;2.13;1.25;;;;;;;16.17;33.92;101664.66;4191929;28;20483;-46
2021/05/02 04:19:02;;;;;;;2.13;1.15;;;;;;;16.27;33.70;101675.13;4191144;28;20534;-46
2021/05/02 04:21:03;;;;;;;2.03;1.17;;;;;;;16.24;33.85;101667.31;4191911;28;20364;-44
2021/05/02 04:23:03;;;;;;;2.05;1.35;;;;;;;16.23;33.70;101671.97;4192105;28;20039;-45
2021/05/02 04:25:05;;;;;;;1.55;0.98;;;;;;;16.29;33.70;101671.00;4192137;28;20109;-46
2021/05/02 04:27:06;;;;;;;1.55;1.20;;;;;;;16.17;33.76;101659.13;4190770;28;20032;-50
2021/05/02 04:29:06;;;;;;;2.25;1.20;;;;;;;16.23;33.85;101674.72;4182961;28;20033;-46
2021/05/02 04:31:07;;;;;;;2.72;1.20;;;;;;;16.15;33.91;101658.53;4188734;28;20028;-45
2021/05/02 04:33:08;;;;;;;1.15;0.95;;;;;;;16.29;33.80;101671.00;4189506;28;20090;-45
2021/05/02 04:35:08;;;;;;;1.38;1.23;;;;;;;16.34;33.71;101673.91;4190367;28;20036;-49
2021/05/02 04:37:09;;;;;;;1.20;1.10;;;;;;;16.30;33.62;101674.63;4190133;28;20040;-45
2021/05/02 04:39:09;;;;;;;1.38;1.25;;;;;;;16.37;33.54;101681.72;4185002;28;20017;-47
2021/05/02 04:41:10;;;;;;;1.55;1.17;;;;;;;16.27;33.81;101677.88;4181780;28;20032;-45
2021/05/02 04:43:10;;;;;;;1.08;0.98;;;;;;;16.26;33.72;101684.47;4192247;28;20437;-48
2021/05/02 04:45:11;;;;;;;0.90;0.85;;;;;;;16.25;33.75;101689.16;4192055;28;20032;-46
2021/05/02 04:47:17;;;;;;;4.97;1.20;;;;;;;16.28;33.67;101685.06;4189866;28;20123;-48
2021/05/02 04:49:18;;;;;;;1.92;1.10;;;;;;;16.32;33.69;101698.16;4190592;28;20042;-49
2021/05/02 04:51:20;;;;;;;1.67;1.00;;;;;;;16.25;33.73;101691.06;4188941;28;20048;-47
2021/05/02 04:53:20;;;;;;;1.27;0.82;;;;;;;16.36;33.53;101695.78;4191323;28;20097;-47
2021/05/02 04:55:20;;;;;;;1.75;0.80;;;;;;;16.30;33.65;101694.81;4191334;28;20040;-44
2021/05/02 04:57:21;;;;;;;1.80;0.98;;;;;;;16.32;33.73;101683.50;4185679;28;20032;-45
2021/05/02 04:59:21;;;;;;;2.22;0.95;;;;;;;16.27;33.72;101694.44;4190263;28;20031;-46
2021/05/02 05:01:22;;;;;;;1.88;1.10;;;;;;;16.29;33.73;101698.63;4191950;28;20025;-44
2021/05/02 05:03:23;;;;;;;3.22;1.15;;;;;;;16.29;33.67;101703.34;4191887;28;20039;-46
2021/05/02 05:05:24;;;;;;;3.80;1.10;;;;;;;16.27;33.56;101700.81;4191818;28;20024;-50
2021/05/02 05:07:24;;;;;;;1.33;0.88;;;;;;;16.28;33.76;101710.78;4190694;28;20399;-46
2021/05/02 05:09:25;;;;;;;1.60;0.95;;;;;;;16.17;33.55;101672.94;4189579;28;20043;-47
2021/05/02 05:11:25;;;;;;;1.50;1.35;;;;;;;16.28;33.61;101712.69;4191978;28;20121;-46
2021/05/02 05:13:26;;;;;;;2.60;1.02;;;;;;;16.28;33.70;101712.69;4191059;28;20123;-51
2021/05/02 05:15:26;;;;;;;2.45;1.27;;;;;;;16.27;33.86;101713.78;4191257;28;20079;-47
2021/05/02 05:17:27;;;;;;;1.83;1.02;;;;;;;16.34;33.69;101712.59;4191132;28;20041;-45
2021/05/02 05:19:27;;;;;;;1.33;0.90;;;;;;;16.35;33.70;101717.00;4189366;28;20048;-49
2021/05/02 05:21:27;;;;;;;1.67;1.02;;;;;;;16.24;33.73;101717.03;4188852;28;20044;-47
2021/05/02 05:23:28;;;;;;;1.70;0.90;;;;;;;16.31;33.77;101724.13;4187649;28;20033;-49
2021/05/02 05:25:28;;;;;;;0.80;0.77;;;;;;;16.37;33.67;101728.69;4190463;28;20028;-47
2021/05/02 05:27:29;;;;;;;2.08;1.10;;;;;;;16.39;33.61;101732.03;4191940;28;20384;-47
2021/05/02 05:29:29;;;;;;;1.75;0.90;;;;;;;16.42;33.59;101727.97;4190555;28;20041;-44
2021/05/02 05:31:30;;;;;;;0.85;0.82;;;;;;;16.39;33.61;101734.81;4190961;28;20051;-49
2021/05/02 05:33:31;;;;;;;1.35;0.93;;;;;;;16.39;33.49;101728.44;4189683;28;20085;-47
2021/05/02 05:35:32;;;;;;;1.63;0.77;;;;;;;16.42;33.59;101727.09;4188293;28;20040;-49
2021/05/02 05:37:32;;;;;;;1.85;1.13;;;;;;;16.45;33.53;101732.16;4191721;28;20029;-46
2021/05/02 05:39:33;;;;;;;2.50;0.80;;;;;;;16.55;33.39;101738.75;4191824;28;20037;-45
2021/05/02 05:41:33;;;;;;;1.05;0.95;;;;;;;16.55;33.42;101732.41;4189366;28;20044;-45
2021/05/02 05:43:34;;;;;;;1.35;1.08;;;;;;;16.54;33.35;101730.69;4179555;28;20025;-48
2021/05/02 05:45:35;;;;;;;1.30;0.80;;;;;;;16.53;33.12;101734.56;4188966;28;20047;-45
2021/05/02 05:47:36;;;;;;;1.95;0.68;;;;;;;16.52;33.42;101736.47;4189848;28;20485;-48
2021/05/02 05:49:38;;;;;;;1.25;1.00;;;;;;;16.61;33.19;101742.47;4187830;28;20032;-50
2021/05/02 05:51:39;;;;;;;1.88;1.52;;;;;;;16.52;33.48;101727.34;4189337;28;20387;-44
2021/05/02 05:53:39;;;;;;;1.45;1.00;;;;;;;16.64;33.30;101744.75;4190758;28;20398;-50
2021/05/02 05:55:39;;;;;;;1.13;0.85;;;;;;;16.68;33.09;101746.00;4190526;28;20032;-49
2021/05/02 05:57:40;;;;;;;2.17;1.20;;;;;;;16.61;33.22;101736.97;4189577;28;20052;-45
2021/05/02 05:59:41;;;;;;;1.70;0.98;;;;;;;16.68;33.13;101745.13;4191720;28;20135;-49
2021/05/02 06:01:42;;;;;;;1.30;1.20;;;;;;;16.72;33.05;101751.88;4189695;28;20039;-45
2021/05/02 06:03:42;;;;;;;1.90;0.90;;;;;;;16.75;33.05;101752.22;4190386;28;20028;-50
2021/05/02 06:05:42;;;;;;;1.23;0.70;;;;;;;16.77;32.99;101748.38;4190321;28;20097;-52
2021/05/02 06:07:44;;;;;;;1.33;0.90;;;;;;;16.77;32.88;101754.75;4190317;28;20037;-47
2021/05/02 06:09:44;;;;;;;0.65;0.60;;;;;;;16.66;32.98;101752.84;4191163;28;20031;-46
2021/05/02 06:11:45;;;;;;;2.28;0.55;;;;;;;16.75;32.97;101757.75;4189793;28;20029;-46
2021/05/02 06:13:46;;;;;;;2.05;0.88;;;;;;;16.75;33.09;101757.75;4190169;28;20466;-45
2021/05/02 06:15:46;;;;;;;0.57;0.55;;;;;;;16.79;32.75;101760.91;4191042;28;20074;-47
2021/05/02 06:17:46;;;;;;;1.08;0.80;;;;;;;16.81;32.94;101757.88;4189292;28;20498;-48
2021/05/02 06:19:47;;;;;;;0.90;0.50;;;;;;;16.77;33.12;101760.28;4188489;28;20086;-46
2021/05/02 06:21:47;;;;;;;2.05;0.82;;;;;;;16.85;32.95;101761.81;4190956;28;20032;-52
2021/05/02 06:23:49;;;;;;;1.13;0.70;;;;;;;16.85;32.82;101768.22;4189691;28;20029;-47
2021/05/02 06:25:49;;;;;;;1.10;0.80;;;;;;;16.86;32.98;101769.88;4190085;28;20041;-44
2021/05/02 06:27:50;;;;;;;0.85;0.70;;;;;;;16.82;32.88;101762.31;4190493;28;20036;-49
2021/05/02 06:29:50;;;;;;;2.67;0.80;;;;;;;16.81;32.95;101760.66;4190456;28;20462;-47
2021/05/02 06:31:51;;;;;;;1.25;0.90;;;;;;;16.88;32.94;101758.56;4181700;28;20035;-45
2021/05/02 06:33:51;;;;;;;1.52;0.80;;;;;;;16.87;32.93;101757.75;4190015;28;20040;-48
2021/05/02 06:35:52;;;;;;;1.10;1.00;;;;;;;16.90;32.85;101764.72;4176216;28;20522;-46
2021/05/02 06:37:52;;;;;;;0.73;0.73;;;;;;;16.74;33.08;101744.19;4192215;28;20041;-46
2021/05/02 06:39:52;;;;;;;1.25;0.80;;;;;;;16.90;32.73;101773.84;4192607;28;20025;-51
2021/05/02 06:41:53;;;;;;;2.22;1.30;;;;;;;16.94;32.81;101768.66;4189579;28;20502;-49
2021/05/02 06:43:54;;;;;;;1.83;1.30;;;;;;;16.90;32.84;101771.09;4193019;28;20056;-47
2021/05/02 06:45:54;;;;;;;0.70;0.70;;;;;;;16.79;32.78;101736.00;4193669;28;20035;-46
2021/05/02 06:47:55;;;;;;;1.00;0.80;;;;;;;16.96;32.88;101766.53;4193750;28;20033;-47
2021/05/02 06:49:55;;;;;;;1.98;0.80;;;;;;;16.92;32.82;101768.91;4191875;28;20029;-48
2021/05/02 06:51:56;;;;;;;0.68;0.68;;;;;;;16.89;32.81;101758.34;4193557;28;20029;-46
2021/05/02 06:53:56;;;;;;;1.13;0.75;;;;;;;16.94;32.83;101768.66;4190640;28;20040;-50
2021/05/02 06:55:56;;;;;;;0.82;0.70;;;;;;;16.92;32.84;101763.38;4192281;28;20037;-48
2021/05/02 06:57:59;;;;;;;0.90;0.65;;;;;;;16.98;32.89;101769.88;4193928;28;20036;-45
2021/05/02 06:59:59;;;;;;;2.03;0.68;;;;;;;16.99;32.73;101768.78;4191761;28;20085;-48
2021/05/02 07:02:00;;;;;;;1.23;0.95;;;;;;;16.96;32.70;101760.13;4192237;28;20036;-47
2021/05/02 07:04:00;;;;;;;1.35;0.70;;;;;;;16.93;32.68;101754.00;4187800;28;20585;-47
2021/05/02 07:06:03;;;;;;;0.95;0.60;;;;;;;17.04;32.83;101777.19;4192523;28;20048;-45
2021/05/02 07:08:03;;;;;;;1.00;0.77;;;;;;;17.05;32.52;101761.44;4193720;28;20082;-49
2021/05/02 07:10:05;;;;;;;1.20;0.70;;;;;;;17.05;32.68;101772.50;4192549;28;20036;-47
2021/05/02 07:12:06;;;;;;;0.93;0.60;;;;;;;17.05;32.68;101781.66;4192366;28;20074;-45
2021/05/02 07:14:06;;;;;;;1.00;0.85;;;;;;;17.05;32.71;101778.03;4193372;28;20053;-47
2021/05/02 07:16:08;;;;;;;0.73;0.73;;;;;;;17.01;32.58;101780.44;4191126;28;20028;-47
2021/05/02 07:18:09;;;;;;;2.55;0.82;;;;;;;16.97;32.75;101801.38;4192463;28;20550;-45
2021/05/02 07:20:11;;;;;;;0.77;0.65;;;;;;;16.99;32.73;101813.06;4182611;28;20028;-46
2021/05/02 07:22:12;;;;;;;1.20;0.90;;;;;;;16.96;32.94;101820.97;4191010;28;20036;-46
2021/05/02 07:24:16;;;;;;;1.83;0.80;;;;;;;16.71;32.84;101792.50;4193770;28;20032;-45
2021/05/02 07:26:18;;;;;;;0.70;0.70;;;;;;;16.97;32.78;101833.72;4192578;28;20071;-44
2021/05/02 07:28:18;;;;;;;1.10;0.68;;;;;;;16.95;32.92;101825.66;4192798;28;20024;-45
2021/05/02 07:30:21;;;;;;;1.80;0.80;;;;;;;16.87;32.75;101824.13;4193886;28;20032;-48
2021/05/02 07:32:21;;;;;;;2.25;1.00;;;;;;;16.92;32.86;101817.84;4191647;28;20029;-45
2021/05/02 07:34:23;;;;;;;1.60;1.48;;;;;;;16.94;32.74;101818.44;4187949;28;20546;-45
2021/05/02 07:36:24;;;;;;;1.60;0.90;;;;;;;16.95;32.81;101817.38;4191159;28;20437;-45
2021/05/02 07:38:25;;;;;;;1.25;0.82;;;;;;;16.98;32.75;101818.81;4193115;28;20231;-45
2021/05/02 07:40:25;;;;;;;1.17;1.05;;;;;;;17.00;32.73;101822.19;4193902;28;20115;-46
2021/05/02 07:42:26;;;;;;;0.82;0.68;;;;;;;17.01;32.63;101826.63;4175361;28;20088;-44
2021/05/02 07:44:27;;;;;;;2.03;0.88;;;;;;;17.03;32.74;101825.28;4190833;28;20534;-45
2021/05/02 07:46:28;;;;;;;1.10;0.70;;;;;;;17.03;32.48;101824.47;4191835;28;20079;-45
2021/05/02 07:48:28;;;;;;;2.15;0.93;;;;;;;17.03;32.54;101819.75;4190268;28;20118;-47
2021/05/02 07:50:29;;;;;;;2.85;0.82;;;;;;;16.86;32.54;101810.53;4196541;28;20029;-45
2021/05/02 07:52:29;;;;;;;0.60;0.50;;;;;;;17.02;32.56;101823.63;4187916;28;20040;-45
2021/05/02 07:54:30;;;;;;;0.57;0.50;;;;;;;17.00;32.32;101820.25;4191011;28;20110;-45
2021/05/02 07:56:30;;;;;;;0.98;0.88;;;;;;;17.02;32.60;101812.56;4192486;28;20035;-45
2021/05/02 07:58:31;;;;;;;0.73;0.70;;;;;;;16.99;32.46;101812.19;4190642;28;20408;-48
2021/05/02 08:00:31;;;;;;;0.80;0.73;;;;;;;17.06;32.59;101818.44;4190955;28;20066;-46
2021/05/02 08:02:32;;;;;;;0.88;0.80;;;;;;;17.09;32.46;101832.63;4192721;28;20379;-47
2021/05/02 08:04:37;;;;;;;1.02;0.80;;;;;;;17.06;32.44;101822.03;4191403;28;20098;-48
2021/05/02 08:06:37;;;;;;;0.63;0.60;;;;;;;17.08;32.53;101822.63;4192188;28;20024;-47
2021/05/02 08:08:38;;;;;;;0.70;0.70;;;;;;;17.10;32.57;101817.72;4192252;28;20815;-46
2021/05/02 08:10:38;;;;;;;1.15;0.70;;;;;;;17.07;32.70;101817.38;4191586;28;20036;-47
2021/05/02 08:12:39;;;;;;;1.33;0.90;;;;;;;17.05;32.58;101819.50;4193123;28;20059;-47
2021/05/02 08:14:39;;;;;;;1.27;1.17;;;;;;;17.01;32.54;101818.34;4190251;28;20064;-46
2021/05/02 08:16:40;;;;;;;0.98;0.82;;;;;;;17.02;32.62;101822.78;4192181;28;20468;-47
2021/05/02 08:18:41;;;;;;;1.00;0.90;;;;;;;17.03;32.51;101822.53;4192853;28;20029;-46
2021/05/02 08:20:41;;;;;;;1.33;0.80;;;;;;;17.06;32.61;101824.81;4191048;28;20035;-45
2021/05/02 08:22:42;;;;;;;1.02;0.63;;;;;;;17.05;32.64;101822.28;4205786;28;20028;-45
2021/05/02 08:24:42;;;;;;;0.93;0.68;;;;;;;17.09;32.48;101827.09;4192419;28;20158;-45
2021/05/02 08:26:42;;;;;;;0.57;0.57;;;;;;;17.13;32.42;101834.91;4190643;28;20568;-51
2021/05/02 08:28:43;;;;;;;1.40;0.77;;;;;;;17.14;32.43;101826.34;4185895;28;20025;-49
2021/05/02 08:30:43;;;;;;;0.98;0.55;;;;;;;17.14;32.34;101831.06;4190480;28;20024;-50
2021/05/02 08:32:44;;;;;;;1.65;0.75;;;;;;;17.08;32.50;101825.41;4191681;28;20033;-45
2021/05/02 08:34:44;;;;;;;0.73;0.60;;;;;;;17.15;32.46;101829.94;4192524;28;20040;-49
2021/05/02 08:36:45;;;;;;;1.33;0.60;;;;;;;17.10;32.37;101826.00;4192022;28;20036;-46
2021/05/02 08:38:45;;;;;;;1.20;0.70;;;;;;;17.16;32.41;101828.88;4186665;28;20025;-50
2021/05/02 08:40:45;;;;;;;1.10;1.00;;;;;;;17.16;32.40;101839.94;4182648;28;20575;-52
2021/05/02 08:42:47;;;;;;;1.45;0.70;;;;;;;17.15;32.32;101841.88;4190060;28;20060;-46
2021/05/02 08:44:48;;;;;;;1.33;0.57;;;;;;;17.07;32.33;101828.44;4190891;28;20027;-46
2021/05/02 08:46:48;;;;;;;0.90;0.70;;;;;;;17.16;32.26;101839.94;4189782;28;20037;-49
2021/05/02 08:48:48;;;;;;;1.73;0.70;;;;;;;17.10;32.38;101828.78;4190443;28;20040;-49
2021/05/02 08:50:50;;;;;;;0.88;0.60;;;;;;;17.14;32.43;101839.34;4182254;28;20059;-47
2021/05/02 08:52:50;;;;;;;1.02;0.90;;;;;;;17.17;32.48;101831.41;4189781;28;20546;-50
2021/05/02 08:54:50;;;;;;;1.05;1.00;;;;;;;17.15;32.40;101838.25;4191368;28;20107;-45
2021/05/02 08:56:56;;;;;;;0.63;0.63;;;;;;;17.16;32.42;101838.00;4184163;28;20040;-45
2021/05/02 08:58:56;;;;;;;1.00;0.77;;;;;;;17.18;32.21;101843.31;4190182;28;20537;-51
2021/05/02 09:00:58;;;;;;;1.13;0.90;;;;;;;17.18;32.43;101846.06;4190798;28;20044;-49
2021/05/02 09:02:58;;;;;;;2.22;0.85;;;;;;;17.24;32.59;101837.66;4189370;28;20039;-49
2021/05/02 09:05:01;;;;;;;3.38;1.40;;;;;;;17.29;32.75;101854.34;4189790;28;20064;-48
2021/05/02 09:07:13;;;;;;;7.38;1.50;;;;;;;17.36;33.63;101847.84;4180577;28;20159;-47
2021/05/02 09:09:13;;;;;;;9.60;2.10;;;;;;;17.42;35.75;101847.69;4190570;28;20606;-49
2021/05/02 09:11:15;;;;;;;9.82;1.83;;;;;;;17.45;37.00;101847.22;4190747;28;20036;-47
2021/05/02 09:13:16;;;;;;;9.88;1.88;;;;;;;17.51;37.13;101853.75;4185765;28;20402;-49
2021/05/02 09:15:20;;;;;;;8.88;1.92;;;;;;;17.53;37.21;101847.94;4191005;28;20192;-49
2021/05/02 09:17:28;;;;;;;13.93;1.98;;;;;;;17.48;36.86;101853.38;4192200;28;20040;-45
2021/05/02 09:19:32;;;;;;;7.05;2.00;;;;;;;17.48;36.80;101851.44;4187972;28;20032;-48
2021/05/02 09:21:32;;;;;;;7.85;2.25;;;;;;;17.38;37.00;101818.00;4186382;28;20043;-49
2021/05/02 09:23:41;;;;;;;11.75;2.17;;;;;;;17.57;36.46;101851.94;4185085;28;20036;-49
2021/05/02 09:25:46;;;;;;;13.15;2.53;;;;;;;17.57;36.69;101854.69;4190276;28;20032;-45
2021/05/02 09:27:50;;;;;;;14.55;2.60;;;;;;;17.56;36.55;101856.59;4191280;28;20055;-44
2021/05/02 09:29:50;;;;;;;14.50;2.33;;;;;;;17.62;36.45;101854.78;4189210;28;20036;-51